createdAt,value
2023-08-02T00:00:13.843Z,5.38
2023-08-02T00:02:43.967Z,6.75
2023-08-02T00:05:12.158Z,4.18
2023-08-02T00:07:40.160Z,5.13
2023-08-02T00:10:08.713Z,5.03
2023-08-02T00:12:36.732Z,6.03
2023-08-02T00:15:05.107Z,4.78
2023-08-02T00:17:34.628Z,5.70
2023-08-02T00:20:03.652Z,5.72
2023-08-02T00:22:31.562Z,5.65
2023-08-02T00:24:59.493Z,3.90
2023-08-02T00:27:27.794Z,4.72
2023-08-02T00:29:55.812Z,5.30
2023-08-02T00:32:24.681Z,4.45
2023-08-02T00:34:56.022Z,5.22
2023-08-02T00:37:24.626Z,5.50
2023-08-02T00:39:53.726Z,3.53
2023-08-02T00:42:22.599Z,3.58
2023-08-02T00:44:51.001Z,4.82
2023-08-02T00:47:19.390Z,5.88
2023-08-02T00:49:48.187Z,5.30
2023-08-02T00:52:17.676Z,4.93
2023-08-02T00:54:45.748Z,4.72
2023-08-02T00:57:13.774Z,4.03
2023-08-02T00:59:42.626Z,6.10
2023-08-02T01:02:11.279Z,5.90
2023-08-02T01:04:40.186Z,5.15
2023-08-02T01:07:17.036Z,6.38
2023-08-02T01:09:53.474Z,5.20
2023-08-02T01:12:24.149Z,6.72
2023-08-02T01:15:01.837Z,4.15
2023-08-02T01:17:30.763Z,6.68
2023-08-02T01:20:05.034Z,5.13
2023-08-02T01:22:33.318Z,5.07
2023-08-02T01:25:01.837Z,5.32
2023-08-02T01:27:36.592Z,4.47
2023-08-02T01:30:08.599Z,4.80
2023-08-02T01:32:37.115Z,5.78
2023-08-02T01:35:08.499Z,6.32
2023-08-02T01:37:36.898Z,6.43
2023-08-02T01:40:05.052Z,5.18
2023-08-02T01:42:33.420Z,7.32
2023-08-02T01:45:01.454Z,6.05
2023-08-02T01:47:29.556Z,5.35
2023-08-02T01:49:57.606Z,5.20
2023-08-02T01:52:27.144Z,5.22
2023-08-02T01:54:55.233Z,5.80
2023-08-02T01:57:23.258Z,6.35
2023-08-02T01:59:51.501Z,4.68
2023-08-02T02:02:19.504Z,3.72
2023-08-02T02:04:47.616Z,4.82
2023-08-02T02:07:15.634Z,5.30
2023-08-02T02:09:45.047Z,5.00
2023-08-02T02:12:13.057Z,5.50
2023-08-02T02:14:41.074Z,5.28
2023-08-02T02:17:09.196Z,4.10
2023-08-02T02:19:40.923Z,4.85
2023-08-02T02:22:09.036Z,4.85
2023-08-02T02:24:36.996Z,5.93
2023-08-02T02:27:07.332Z,3.38
2023-08-02T02:29:35.373Z,6.53
2023-08-02T02:32:04.174Z,5.82
2023-08-02T02:34:32.454Z,3.85
2023-08-02T02:37:00.495Z,4.43
2023-08-02T02:39:29.079Z,5.72
2023-08-02T02:41:57.109Z,5.82
2023-08-02T02:44:40.613Z,4.65
2023-08-02T02:47:08.534Z,6.55
2023-08-02T02:49:36.506Z,8.43
2023-08-02T02:52:05.079Z,6.88
2023-08-02T02:54:33.044Z,5.85
2023-08-02T02:57:01.925Z,4.90
2023-08-02T02:59:31.359Z,7.72
2023-08-02T03:01:59.404Z,6.95
2023-08-02T03:04:27.397Z,4.78
2023-08-02T03:06:56.042Z,5.82
2023-08-02T03:09:25.280Z,5.38
2023-08-02T03:11:53.411Z,6.88
2023-08-02T03:14:21.370Z,5.70
2023-08-02T03:16:50.761Z,7.88
2023-08-02T03:19:18.742Z,4.97
2023-08-02T03:21:46.709Z,6.45
2023-08-02T03:24:14.737Z,6.57
2023-08-02T03:26:42.910Z,8.80
2023-08-02T03:29:11.219Z,6.10
2023-08-02T03:31:39.241Z,6.22
2023-08-02T03:34:08.568Z,7.45
2023-08-02T03:36:37.477Z,5.75
2023-08-02T03:39:05.600Z,6.47
2023-08-02T03:41:34.252Z,9.32
2023-08-02T03:44:02.210Z,5.60
2023-08-02T03:46:31.912Z,7.45
2023-08-02T03:49:02.057Z,7.45
2023-08-02T03:51:31.454Z,6.20
2023-08-02T03:53:59.511Z,6.80
2023-08-02T03:56:27.600Z,6.45
2023-08-02T03:58:55.536Z,7.95
2023-08-02T04:01:23.581Z,8.00
2023-08-02T04:03:51.669Z,4.97
2023-08-02T04:06:19.857Z,8.65
2023-08-02T04:08:49.221Z,7.43
2023-08-02T04:11:17.172Z,7.97
2023-08-02T04:13:45.225Z,8.05
2023-08-02T04:16:15.663Z,8.38
2023-08-02T04:18:44.003Z,7.10
2023-08-02T04:21:11.880Z,7.35
2023-08-02T04:23:39.878Z,5.78
2023-08-02T04:26:13.142Z,7.47
2023-08-02T04:28:41.118Z,5.03
2023-08-02T04:31:09.174Z,6.75
2023-08-02T04:33:37.210Z,7.18
2023-08-02T04:36:05.736Z,4.85
2023-08-02T04:38:33.762Z,5.95
2023-08-02T04:41:01.814Z,6.70
2023-08-02T04:43:31.232Z,5.90
2023-08-02T04:45:59.328Z,6.28
2023-08-02T04:48:27.319Z,4.85
2023-08-02T04:50:55.277Z,5.97
2023-08-02T04:53:23.227Z,4.82
2023-08-02T04:55:51.231Z,5.55
2023-08-02T04:58:19.146Z,5.63
2023-08-02T05:00:48.669Z,4.28
2023-08-02T05:03:16.697Z,6.32
2023-08-02T05:05:44.619Z,7.15
2023-08-02T05:08:12.668Z,5.93
2023-08-02T05:10:40.755Z,5.53
2023-08-02T05:13:08.829Z,4.80
2023-08-02T05:15:39.834Z,6.30
2023-08-02T05:18:09.445Z,7.03
2023-08-02T05:20:38.105Z,5.97
2023-08-02T05:23:06.114Z,6.30
2023-08-02T05:25:35.927Z,4.13
2023-08-02T05:28:04.828Z,5.00
2023-08-02T05:30:34.107Z,4.65
2023-08-02T05:33:02.226Z,4.85
2023-08-02T05:35:31.675Z,5.45
2023-08-02T05:37:59.634Z,5.55
2023-08-02T05:40:28.142Z,4.80
2023-08-02T05:42:56.240Z,6.00
2023-08-02T05:45:24.218Z,5.38
2023-08-02T05:47:52.268Z,6.97
2023-08-02T05:50:20.683Z,5.72
2023-08-02T05:52:50.236Z,11.00
2023-08-02T05:55:18.788Z,3.75
2023-08-02T05:57:46.774Z,5.68
2023-08-02T06:00:15.347Z,5.28
2023-08-02T06:02:43.559Z,5.05
2023-08-02T06:05:11.604Z,6.05
2023-08-02T06:07:39.676Z,7.60
2023-08-02T06:10:10.023Z,5.28
2023-08-02T06:12:38.009Z,6.10
2023-08-02T06:15:07.239Z,5.80
2023-08-02T06:17:35.266Z,4.70
2023-08-02T06:20:03.417Z,3.55
2023-08-02T06:22:31.418Z,5.43
2023-08-02T06:24:59.386Z,5.15
2023-08-02T06:27:28.767Z,4.38
2023-08-02T06:29:56.846Z,4.00
2023-08-02T06:32:24.928Z,5.05
2023-08-02T06:34:52.959Z,5.97
2023-08-02T06:37:21.003Z,5.65
2023-08-02T06:39:49.087Z,4.15
2023-08-02T06:42:16.982Z,8.63
2023-08-02T06:44:46.499Z,4.15
2023-08-02T06:47:14.568Z,5.00
2023-08-02T06:49:42.538Z,5.20
2023-08-02T06:52:11.813Z,5.30
2023-08-02T06:54:39.857Z,4.47
2023-08-02T06:57:09.664Z,4.00
2023-08-02T06:59:37.671Z,4.55
2023-08-02T07:02:08.602Z,7.97
2023-08-02T07:04:36.670Z,5.85
2023-08-02T07:07:07.711Z,4.63
2023-08-02T07:09:35.642Z,4.45
2023-08-02T07:12:03.872Z,6.78
2023-08-02T07:14:31.882Z,4.38
2023-08-02T07:16:59.910Z,5.15
2023-08-02T07:19:29.285Z,4.30
2023-08-02T07:21:57.273Z,7.28
2023-08-02T07:24:25.317Z,3.83
2023-08-02T07:26:53.294Z,7.53
2023-08-02T07:29:21.248Z,3.50
2023-08-02T07:31:49.260Z,6.22
2023-08-02T07:34:17.240Z,5.07
2023-08-02T07:36:46.607Z,7.18
2023-08-02T07:39:14.812Z,4.95
2023-08-02T07:41:43.499Z,4.43
2023-08-02T07:44:12.152Z,3.88
2023-08-02T07:46:40.177Z,4.63
2023-08-02T07:49:08.341Z,4.07
2023-08-02T07:51:36.382Z,2.75
2023-08-02T07:54:05.788Z,4.72
2023-08-02T07:56:33.747Z,4.80
2023-08-02T07:59:04.167Z,2.88
2023-08-02T08:01:32.875Z,5.47
2023-08-02T08:04:01.082Z,3.90
2023-08-02T08:06:29.190Z,5.13
2023-08-02T08:08:57.312Z,3.75
2023-08-02T08:11:28.704Z,3.55
2023-08-02T08:13:56.994Z,3.15
2023-08-02T08:16:25.151Z,2.70
2023-08-02T08:18:53.225Z,2.45
2023-08-02T08:21:21.214Z,4.03
2023-08-02T08:23:49.269Z,2.60
2023-08-02T08:26:17.214Z,2.78
2023-08-02T08:28:46.647Z,2.53
2023-08-02T08:31:14.606Z,5.25
2023-08-02T08:33:42.687Z,4.50
2023-08-02T08:36:15.182Z,2.63
2023-08-02T08:38:43.747Z,3.45
2023-08-02T08:41:15.694Z,2.75
2023-08-02T08:43:44.073Z,2.97
2023-08-02T08:46:14.754Z,3.17
2023-08-02T08:48:43.456Z,2.53
2023-08-02T08:51:12.468Z,2.85
2023-08-02T08:53:45.650Z,4.10
2023-08-02T08:56:13.834Z,3.50
2023-08-02T08:58:42.096Z,4.13
2023-08-02T09:01:10.705Z,3.85
2023-08-02T09:03:40.209Z,3.05
2023-08-02T09:06:08.250Z,2.90
2023-08-02T09:08:44.557Z,3.53
2023-08-02T09:11:13.656Z,2.63
2023-08-02T09:13:41.943Z,3.97
2023-08-02T09:16:12.158Z,3.35
2023-08-02T09:18:43.858Z,4.35
2023-08-02T09:21:15.641Z,5.18
2023-08-02T09:23:49.127Z,4.47
2023-08-02T09:26:19.554Z,4.20
2023-08-02T09:29:01.707Z,5.65
2023-08-02T09:31:30.899Z,3.28
2023-08-02T09:34:00.695Z,4.85
2023-08-02T09:36:30.432Z,4.15
2023-08-02T09:38:59.663Z,2.92
2023-08-02T09:43:59.571Z,5.22
2023-08-02T09:46:30.677Z,3.13
2023-08-02T09:49:00.723Z,2.55
2023-08-02T09:51:42.151Z,4.35
2023-08-02T09:54:11.717Z,5.28
2023-08-02T09:56:41.845Z,3.28
2023-08-02T09:59:11.195Z,3.92
2023-08-02T10:01:39.445Z,3.00
2023-08-02T10:04:11.458Z,4.53
2023-08-02T10:06:40.938Z,3.80
2023-08-02T10:09:11.035Z,3.03
2023-08-02T10:11:44.150Z,3.15
2023-08-02T10:14:13.168Z,3.45
2023-08-02T10:16:43.019Z,3.22
2023-08-02T10:19:14.190Z,2.35
2023-08-02T10:21:42.532Z,3.10
2023-08-02T10:24:11.943Z,2.53
2023-08-02T10:26:41.213Z,4.40
2023-08-02T10:29:10.721Z,2.65
2023-08-02T10:31:39.131Z,3.83
2023-08-02T10:34:37.365Z,5.20
2023-08-02T10:37:07.348Z,5.03
2023-08-02T10:39:56.999Z,3.05
2023-08-02T10:42:27.975Z,4.65
2023-08-02T10:45:13.811Z,3.33
2023-08-02T10:47:41.945Z,3.22
2023-08-02T10:50:11.351Z,2.92
2023-08-02T10:52:41.014Z,2.80
2023-08-02T10:55:17.335Z,4.53
2023-08-02T10:58:06.789Z,2.90
2023-08-02T11:00:38.435Z,4.18
2023-08-02T11:03:06.593Z,2.97
2023-08-02T11:05:42.787Z,2.70
2023-08-02T11:08:13.065Z,3.08
2023-08-02T11:10:51.630Z,2.30
2023-08-02T11:13:20.771Z,2.47
2023-08-02T11:15:48.885Z,3.38
2023-08-02T11:18:31.228Z,2.03
2023-08-02T11:21:09.062Z,2.70
2023-08-02T11:23:39.494Z,3.17
2023-08-02T11:26:26.934Z,2.33
2023-08-02T11:28:55.570Z,6.55
2023-08-02T11:31:25.410Z,2.95
2023-08-02T11:33:54.032Z,2.63
2023-08-02T11:36:22.101Z,2.42
2023-08-02T11:38:52.181Z,2.20
2023-08-02T11:41:21.818Z,4.55
2023-08-02T11:43:50.986Z,2.33
2023-08-02T11:46:23.006Z,3.15
2023-08-02T11:48:51.492Z,3.05
2023-08-02T11:51:21.588Z,2.45
2023-08-02T11:53:56.910Z,2.13
2023-08-02T11:56:25.856Z,3.45
2023-08-02T11:58:55.008Z,3.45
2023-08-02T12:01:23.637Z,3.33
2023-08-02T12:03:59.130Z,2.75
2023-08-02T12:06:29.161Z,2.00
2023-08-02T12:09:03.189Z,1.58
2023-08-02T12:11:31.652Z,3.05
2023-08-02T12:14:03.307Z,2.38
2023-08-02T12:16:40.902Z,2.65
2023-08-02T12:19:10.194Z,2.70
2023-08-02T12:21:39.973Z,2.78
2023-08-02T12:24:16.185Z,3.00
2023-08-02T12:26:45.379Z,2.05
2023-08-02T12:29:23.731Z,1.95
2023-08-02T12:31:54.555Z,2.90
2023-08-02T12:34:22.968Z,2.55
2023-08-02T12:36:51.205Z,2.97
2023-08-02T12:39:20.524Z,3.00
2023-08-02T12:41:48.980Z,2.53
2023-08-02T12:44:16.968Z,3.00
2023-08-02T12:46:45.130Z,4.25
2023-08-02T12:49:13.693Z,3.00
2023-08-02T12:51:41.786Z,2.53
2023-08-02T12:54:09.792Z,3.22
2023-08-02T12:56:39.195Z,2.85
2023-08-02T12:59:07.141Z,2.33
2023-08-02T13:01:36.382Z,3.20
2023-08-02T13:04:04.811Z,4.35
2023-08-02T13:06:35.610Z,2.58
2023-08-02T13:09:04.422Z,5.55
2023-08-02T13:11:32.436Z,2.83
2023-08-02T13:14:01.876Z,3.10
2023-08-02T13:16:30.040Z,2.75
2023-08-02T13:18:58.120Z,4.97
2023-08-02T13:21:26.288Z,2.03
2023-08-02T13:23:54.230Z,3.20
2023-08-02T13:26:22.337Z,2.60
2023-08-02T13:28:50.326Z,3.03
2023-08-02T13:31:19.877Z,3.03
2023-08-02T13:33:48.336Z,2.63
2023-08-02T13:36:16.295Z,2.88
2023-08-02T13:38:44.438Z,1.52
2023-08-02T13:41:12.456Z,3.92
2023-08-02T13:43:40.795Z,3.38
2023-08-02T13:46:08.846Z,3.15
2023-08-02T13:48:38.152Z,2.35
2023-08-02T13:51:06.374Z,3.25
2023-08-02T13:53:34.664Z,1.67
2023-08-02T13:56:02.579Z,3.97
2023-08-02T13:58:31.830Z,2.78
2023-08-02T14:00:59.864Z,2.83
2023-08-02T14:03:27.961Z,3.63
2023-08-02T14:05:57.351Z,1.98
2023-08-02T14:08:25.409Z,3.78
2023-08-02T14:10:53.438Z,2.05
2023-08-02T14:13:21.383Z,3.30
2023-08-02T14:15:49.635Z,1.95
2023-08-02T14:18:17.662Z,2.38
2023-08-02T14:20:46.653Z,1.80
2023-08-02T14:23:15.924Z,1.85
2023-08-02T14:25:43.899Z,3.13
2023-08-02T14:28:11.902Z,2.63
2023-08-02T14:30:39.919Z,4.70
2023-08-02T14:33:07.949Z,3.40
2023-08-02T14:35:36.080Z,2.42
2023-08-02T14:38:06.230Z,2.63
2023-08-02T14:40:35.999Z,3.10
2023-08-02T14:45:49.400Z,2.25
2023-08-02T14:48:17.405Z,2.72
2023-08-02T14:50:45.374Z,3.60
2023-08-02T14:53:13.308Z,2.33
2023-08-02T14:55:42.608Z,4.15
2023-08-02T14:58:11.981Z,5.00
2023-08-02T15:00:41.343Z,2.45
2023-08-02T15:03:09.437Z,5.75
2023-08-02T15:05:41.919Z,2.30
2023-08-02T15:08:10.611Z,2.78
2023-08-02T15:10:38.696Z,2.05
2023-08-02T15:13:08.068Z,3.58
2023-08-02T15:15:36.054Z,3.78
2023-08-02T15:18:04.168Z,4.10
2023-08-02T15:20:32.348Z,2.80
2023-08-02T15:23:00.281Z,2.03
2023-08-02T15:25:28.323Z,3.60
2023-08-02T15:28:04.910Z,2.10
2023-08-02T15:30:34.168Z,3.05
2023-08-02T15:33:02.156Z,2.00
2023-08-02T15:35:30.306Z,3.08
2023-08-02T15:40:43.799Z,3.58
2023-08-02T15:43:11.805Z,3.85
2023-08-02T15:45:41.136Z,2.13
2023-08-02T15:48:09.223Z,3.40
2023-08-02T15:50:37.599Z,3.47
2023-08-02T15:53:05.843Z,2.35
2023-08-02T15:55:33.863Z,4.32
2023-08-02T15:58:02.034Z,3.53
2023-08-02T16:00:30.054Z,3.17
2023-08-02T16:03:01.212Z,3.90
2023-08-02T16:05:29.455Z,3.40
2023-08-02T16:07:57.588Z,3.05
2023-08-02T16:10:25.934Z,2.53
2023-08-02T16:12:56.036Z,4.50
2023-08-02T16:15:24.720Z,2.40
2023-08-02T16:17:54.048Z,4.85
2023-08-02T16:20:25.211Z,3.78
2023-08-02T16:22:56.660Z,3.17
2023-08-02T16:25:27.282Z,4.93
2023-08-02T16:27:56.494Z,5.13
2023-08-02T16:30:26.098Z,4.38
2023-08-02T16:32:55.689Z,3.67
2023-08-02T16:35:25.099Z,2.47
2023-08-02T16:37:54.832Z,2.50
2023-08-02T16:40:23.672Z,4.80
2023-08-02T16:42:52.582Z,2.97
2023-08-02T16:45:21.205Z,5.03
2023-08-02T16:47:50.038Z,2.83
2023-08-02T16:50:18.368Z,4.97
2023-08-02T16:52:49.071Z,2.17
2023-08-02T16:55:17.766Z,2.58
2023-08-02T16:57:47.478Z,4.30
2023-08-02T17:00:17.792Z,3.75
2023-08-02T17:02:45.896Z,3.67
2023-08-02T17:05:14.933Z,3.53
2023-08-02T17:07:46.891Z,3.75
2023-08-02T17:10:17.902Z,4.25
2023-08-02T17:12:46.972Z,4.10
2023-08-02T17:15:16.272Z,4.68
2023-08-02T17:17:47.023Z,6.53
2023-08-02T17:20:17.004Z,3.13
2023-08-02T17:22:46.192Z,5.40
2023-08-02T17:25:17.222Z,3.42
2023-08-02T17:27:46.671Z,3.97
2023-08-02T17:30:16.124Z,4.88
2023-08-02T17:32:46.385Z,3.95
2023-08-02T17:35:15.251Z,4.45
2023-08-02T17:37:44.430Z,5.38
2023-08-02T17:40:13.584Z,5.97
2023-08-02T17:42:48.460Z,4.20
2023-08-02T17:45:17.404Z,4.32
2023-08-02T17:47:46.172Z,5.13
2023-08-02T17:50:14.708Z,6.20
2023-08-02T17:52:43.557Z,7.00
2023-08-02T17:55:12.808Z,7.65
2023-08-02T17:57:44.390Z,5.65
2023-08-02T18:00:15.054Z,3.25
2023-08-02T18:02:43.100Z,3.35
2023-08-02T18:05:11.208Z,5.47
2023-08-02T18:07:40.141Z,3.85
2023-08-02T18:10:10.196Z,4.45
2023-08-02T18:12:39.029Z,4.00
2023-08-02T18:15:10.619Z,2.28
2023-08-02T18:17:40.118Z,4.20
2023-08-02T18:20:09.826Z,3.90
2023-08-02T18:22:42.788Z,4.43
2023-08-02T18:25:15.090Z,3.42
2023-08-02T18:27:44.354Z,6.00
2023-08-02T18:30:14.704Z,4.05
2023-08-02T18:32:43.388Z,7.63
2023-08-02T18:35:13.066Z,4.32
2023-08-02T18:37:42.595Z,4.03
2023-08-02T18:40:12.283Z,5.40
2023-08-02T18:42:40.930Z,2.88
2023-08-02T18:45:10.243Z,6.25
2023-08-02T18:47:40.666Z,4.38
2023-08-02T18:50:11.008Z,4.50
2023-08-02T18:52:40.162Z,7.70
2023-08-02T18:55:11.292Z,5.75
2023-08-02T18:57:39.377Z,6.50
2023-08-02T19:00:10.191Z,7.35
2023-08-02T19:02:40.340Z,6.05
2023-08-02T19:05:14.462Z,6.07
2023-08-02T19:07:45.891Z,7.93
2023-08-02T19:10:14.691Z,5.63
2023-08-02T19:12:42.999Z,5.28
2023-08-02T19:15:17.835Z,5.78
2023-08-02T19:17:48.479Z,7.85
2023-08-02T19:20:18.932Z,4.28
2023-08-02T19:22:49.072Z,8.40
2023-08-02T19:25:17.643Z,9.77
2023-08-02T19:27:47.326Z,7.88
2023-08-02T19:30:26.400Z,10.88
2023-08-02T19:32:57.138Z,6.18
2023-08-02T19:35:29.676Z,6.97
2023-08-02T19:37:57.685Z,6.93
2023-08-02T19:40:28.108Z,4.38
2023-08-02T19:42:58.169Z,4.35
2023-08-02T19:45:27.553Z,7.50
2023-08-02T19:48:00.642Z,4.60
2023-08-02T19:52:58.172Z,9.88
2023-08-02T19:55:26.214Z,5.35
2023-08-02T19:57:54.513Z,6.18
2023-08-02T20:00:24.159Z,7.05
2023-08-02T20:02:52.981Z,5.43
2023-08-02T20:05:52.673Z,4.63
2023-08-02T20:08:34.638Z,5.47
2023-08-02T20:11:07.658Z,7.30
2023-08-02T20:13:38.101Z,6.53
2023-08-02T20:16:09.340Z,7.93
2023-08-02T20:18:39.767Z,7.22
2023-08-02T20:21:21.380Z,5.45
2023-08-02T20:23:57.871Z,6.53
2023-08-02T20:26:27.929Z,6.13
2023-08-02T20:28:57.850Z,6.53
2023-08-02T20:31:29.038Z,5.70
2023-08-02T20:33:58.848Z,6.25
2023-08-02T20:36:28.786Z,7.68
2023-08-02T20:38:58.313Z,5.70
2023-08-02T20:41:28.462Z,6.22
2023-08-02T20:43:58.400Z,5.75
2023-08-02T20:46:28.823Z,5.93
2023-08-02T20:48:59.070Z,6.82
2023-08-02T20:51:39.059Z,8.00
2023-08-02T20:54:09.334Z,6.35
2023-08-02T20:56:37.654Z,6.93
2023-08-02T20:59:11.377Z,6.22
2023-08-02T21:01:44.557Z,7.15
2023-08-02T21:04:14.056Z,7.10
2023-08-02T21:06:57.205Z,7.78
2023-08-02T21:09:29.622Z,7.57
2023-08-02T21:11:57.761Z,8.57
2023-08-02T21:14:26.828Z,7.70
2023-08-02T21:16:57.616Z,6.70
2023-08-02T21:19:27.749Z,7.90
2023-08-02T21:21:58.459Z,4.43
2023-08-02T21:24:28.036Z,5.63
2023-08-02T21:26:56.279Z,6.70
2023-08-02T21:29:24.314Z,4.70
2023-08-02T21:31:53.370Z,5.93
2023-08-02T21:34:21.665Z,4.38
2023-08-02T21:36:49.699Z,7.30
2023-08-02T21:39:19.808Z,6.80
2023-08-02T21:41:48.020Z,10.13
2023-08-02T21:44:15.993Z,6.13
2023-08-02T21:46:45.855Z,6.97
2023-08-02T21:49:14.302Z,6.68
2023-08-02T21:51:42.633Z,6.18
2023-08-02T21:54:10.886Z,5.40
2023-08-02T21:56:40.233Z,5.13
2023-08-02T22:02:05.938Z,6.97
2023-08-02T22:04:34.054Z,7.10
2023-08-02T22:07:02.014Z,8.10
2023-08-02T22:09:30.121Z,4.78
2023-08-02T22:11:59.637Z,6.88
2023-08-02T22:14:30.480Z,7.32
2023-08-02T22:16:58.478Z,9.43
2023-08-02T22:19:26.736Z,9.77
2023-08-02T22:21:55.551Z,7.28
2023-08-02T22:24:23.520Z,8.00
2023-08-02T22:26:51.583Z,8.15
2023-08-02T22:29:20.964Z,8.23
2023-08-02T22:31:49.007Z,7.35
2023-08-02T22:34:18.895Z,8.43
2023-08-02T22:36:46.917Z,8.95
2023-08-02T22:39:14.905Z,9.48
2023-08-02T22:41:43.027Z,8.45
2023-08-02T22:44:11.140Z,8.35
2023-08-02T22:46:40.520Z,9.68
2023-08-02T22:51:39.434Z,7.28
2023-08-02T22:54:07.539Z,6.32
2023-08-02T22:56:35.528Z,6.50
2023-08-02T22:59:03.468Z,7.88
2023-08-02T23:01:34.601Z,6.78
2023-08-02T23:04:04.594Z,6.78
2023-08-02T23:06:32.778Z,5.57
2023-08-02T23:09:01.580Z,5.38
2023-08-02T23:11:31.171Z,7.03
2023-08-02T23:13:59.214Z,6.57
2023-08-02T23:16:27.464Z,5.28
2023-08-02T23:18:58.592Z,7.75
2023-08-02T23:21:32.312Z,6.72
2023-08-02T23:24:00.450Z,8.45
2023-08-02T23:26:28.763Z,5.93
2023-08-02T23:29:01.000Z,5.88
2023-08-02T23:31:29.884Z,4.75
2023-08-02T23:33:58.140Z,5.10
2023-08-02T23:36:27.574Z,5.90
2023-08-02T23:38:55.595Z,6.53
2023-08-02T23:41:23.600Z,5.18
2023-08-02T23:43:51.606Z,5.53
2023-08-02T23:46:19.548Z,4.13
2023-08-02T23:48:47.524Z,10.52
2023-08-02T23:51:16.673Z,7.15
2023-08-02T23:53:46.098Z,4.90
2023-08-02T23:56:13.990Z,5.82
2023-08-02T23:58:41.981Z,3.10
